Página principal
METAR-TAF:

METAR-TAF

Aeroportos :

Palacios Municipal Airport

Palacios, Texas, Estados Unidos

latitude: 28-43-39N, longitude: 096-15-03W, altura: 5 m

Observação actual do tempo

O boletim foi feito há 54 minutos, às 20:53 UTC
Vento 13 kt de norte
Temperatura 10°C
Humidade 82%
Pressão 1025 hPa
Visibilidade: 16.1 km
Encobertoa uma altura de 1600 ft

METAR: KPSX 092053Z AUTO 35013KT 10SM OVC016 10/07 A3028 RMK AO2 SLP252 T01000067 56016

Hora: 15:47 (21:47 UTC)


TAF: em falta

Observações e previsões do tempo de mais de 4000 aeroportos (mensagens METAR e TAF).

As estações disponíveis são os pontos amarelos e vermelhos sobre o mapa.

Mova o rato sobre o mapa para ver o nome da estação.

Depois clique no ponto para visualizar as observações e previsões meteorológicas.

Para alterar o mapa : clique nos botões verdes com uma cruz preta para aumentar o zoom; no botão verde com uma pitada de zoom; ou nas setas verdes para mapas adjacentes.


METAR-TAF: